createdAt,value
2018-05-18T00:00:14.016Z,0.00
2018-05-18T00:01:14.165Z,0.00
2018-05-18T00:02:14.317Z,0.00
2018-05-18T00:03:14.472Z,0.00
2018-05-18T00:04:14.621Z,0.00
2018-05-18T00:05:14.774Z,0.00
2018-05-18T00:06:14.925Z,0.00
2018-05-18T00:07:15.077Z,0.00
2018-05-18T00:08:15.230Z,0.00
2018-05-18T00:09:15.379Z,0.00
2018-05-18T00:10:15.533Z,0.00
2018-05-18T00:11:15.685Z,0.00
2018-05-18T00:12:15.835Z,0.00
2018-05-18T00:13:15.993Z,0.00
2018-05-18T00:14:16.141Z,0.00
2018-05-18T00:15:16.290Z,0.00
2018-05-18T00:16:16.440Z,0.00
2018-05-18T00:17:16.594Z,0.00
2018-05-18T00:18:16.745Z,0.00
2018-05-18T00:19:16.897Z,0.00
2018-05-18T00:20:17.039Z,0.00
2018-05-18T00:21:17.189Z,0.00
2018-05-18T00:22:17.341Z,0.00
2018-05-18T00:23:17.492Z,0.00
2018-05-18T00:24:17.644Z,0.00
2018-05-18T00:25:17.800Z,0.00
2018-05-18T00:26:17.950Z,0.00
2018-05-18T00:27:18.099Z,0.00
2018-05-18T00:28:18.255Z,0.00
2018-05-18T00:29:18.404Z,0.00
2018-05-18T00:30:18.554Z,0.00
2018-05-18T00:31:18.719Z,0.00
2018-05-18T00:32:18.852Z,0.00
2018-05-18T00:33:19.007Z,0.00
2018-05-18T00:34:19.157Z,0.00
2018-05-18T00:35:19.310Z,0.00
2018-05-18T00:36:19.458Z,0.00
2018-05-18T00:37:19.619Z,0.00
2018-05-18T00:38:19.766Z,0.00
2018-05-18T00:39:19.937Z,0.00
2018-05-18T00:40:20.069Z,0.00
2018-05-18T00:41:20.213Z,0.00
2018-05-18T00:42:20.371Z,0.00
2018-05-18T00:43:20.527Z,0.00
2018-05-18T00:44:20.679Z,0.00
2018-05-18T00:45:20.827Z,0.00
2018-05-18T00:46:20.981Z,0.00
2018-05-18T00:47:21.132Z,0.00
2018-05-18T00:48:21.277Z,0.00
2018-05-18T00:49:21.430Z,0.00
2018-05-18T00:50:21.584Z,0.00
2018-05-18T00:51:21.732Z,0.00
2018-05-18T00:52:21.888Z,0.00
2018-05-18T00:53:22.038Z,0.00
2018-05-18T00:54:22.191Z,0.00
2018-05-18T00:55:22.343Z,0.00
2018-05-18T00:56:22.494Z,0.00
2018-05-18T00:57:22.645Z,0.00
2018-05-18T00:58:22.794Z,0.00
2018-05-18T00:59:22.949Z,0.00
2018-05-18T01:00:23.100Z,0.00
2018-05-18T01:01:23.250Z,0.00
2018-05-18T01:02:23.402Z,0.00
2018-05-18T01:03:23.553Z,0.00
2018-05-18T01:04:23.783Z,0.00
2018-05-18T01:05:23.856Z,0.00
2018-05-18T01:06:24.015Z,0.00
2018-05-18T01:07:24.159Z,0.00
2018-05-18T01:08:24.314Z,0.00
2018-05-18T01:09:24.469Z,0.00
2018-05-18T01:10:24.620Z,0.00
2018-05-18T01:11:24.773Z,0.00
2018-05-18T01:12:24.924Z,0.00
2018-05-18T01:13:25.076Z,0.00
2018-05-18T01:14:25.227Z,0.00
2018-05-18T01:15:25.380Z,0.00
2018-05-18T01:16:25.533Z,0.00
2018-05-18T01:17:25.685Z,0.00
2018-05-18T01:18:25.835Z,0.00
2018-05-18T01:19:25.990Z,0.00
2018-05-18T01:20:26.140Z,0.00
2018-05-18T01:21:26.295Z,0.00
2018-05-18T01:22:26.441Z,0.00
2018-05-18T01:23:26.598Z,0.00
2018-05-18T01:24:26.748Z,0.00
2018-05-18T01:25:26.899Z,0.00
2018-05-18T01:26:27.050Z,0.00
2018-05-18T01:27:27.203Z,0.00
2018-05-18T01:28:27.354Z,0.00
2018-05-18T01:29:27.507Z,0.00
2018-05-18T01:30:27.657Z,0.00
2018-05-18T01:31:27.808Z,0.00
2018-05-18T01:32:27.961Z,0.00
2018-05-18T01:33:28.118Z,0.00
2018-05-18T01:34:28.264Z,0.00
2018-05-18T01:35:28.416Z,0.00
2018-05-18T01:36:28.565Z,0.00
2018-05-18T01:37:28.709Z,0.00
2018-05-18T01:38:28.863Z,0.00
2018-05-18T01:39:29.014Z,0.00
2018-05-18T01:40:29.166Z,0.00
2018-05-18T01:41:29.317Z,0.00
2018-05-18T01:42:29.471Z,0.00
2018-05-18T01:43:29.620Z,0.00
2018-05-18T01:44:29.771Z,0.00
2018-05-18T01:45:29.922Z,0.00
2018-05-18T01:46:30.073Z,0.00
2018-05-18T01:47:30.224Z,0.00
2018-05-18T01:48:30.371Z,0.00
2018-05-18T01:49:30.544Z,0.00
2018-05-18T01:50:30.696Z,0.00
2018-05-18T01:51:30.845Z,0.00
2018-05-18T01:52:30.996Z,0.00
2018-05-18T01:53:31.150Z,0.00
2018-05-18T01:54:31.301Z,0.00
2018-05-18T01:55:31.451Z,0.00
2018-05-18T01:56:31.602Z,0.00
2018-05-18T01:57:31.754Z,0.00
2018-05-18T01:58:31.905Z,0.00
2018-05-18T01:59:32.060Z,0.00
2018-05-18T02:00:32.210Z,0.00
2018-05-18T02:01:32.360Z,0.00
2018-05-18T02:02:32.510Z,0.00
2018-05-18T02:03:32.664Z,0.00
2018-05-18T02:04:32.815Z,0.00
2018-05-18T02:05:32.963Z,0.00
2018-05-18T02:06:33.115Z,0.00
2018-05-18T02:07:33.266Z,0.00
2018-05-18T02:08:33.416Z,0.00
2018-05-18T02:09:33.570Z,0.00
2018-05-18T02:10:33.721Z,0.00
2018-05-18T02:11:33.876Z,0.00
2018-05-18T02:12:34.028Z,0.00
2018-05-18T02:13:34.180Z,0.00
2018-05-18T02:14:34.331Z,0.00
2018-05-18T02:15:34.486Z,0.00
2018-05-18T02:16:34.634Z,0.00
2018-05-18T02:17:34.788Z,0.00
2018-05-18T02:18:34.941Z,0.00
2018-05-18T02:19:35.092Z,0.00
2018-05-18T02:20:35.243Z,0.00
2018-05-18T02:21:35.395Z,0.00
2018-05-18T02:22:35.548Z,0.00
2018-05-18T02:23:35.697Z,0.00
2018-05-18T02:24:35.850Z,0.00
2018-05-18T02:25:36.004Z,0.00
2018-05-18T02:26:36.155Z,0.00
2018-05-18T02:27:36.307Z,0.00
2018-05-18T02:28:36.461Z,0.00
2018-05-18T02:29:36.613Z,0.00
2018-05-18T02:30:36.762Z,0.00
2018-05-18T02:31:36.917Z,0.00
2018-05-18T02:32:37.069Z,0.00
2018-05-18T02:33:37.219Z,0.00
2018-05-18T02:34:37.370Z,0.00
2018-05-18T02:35:37.521Z,0.00
2018-05-18T02:36:37.679Z,0.00
2018-05-18T02:37:37.825Z,0.00
2018-05-18T02:38:37.976Z,0.00
2018-05-18T02:39:38.129Z,0.00
2018-05-18T02:40:38.286Z,0.00
2018-05-18T02:41:38.437Z,0.00
2018-05-18T02:42:38.589Z,0.00
2018-05-18T02:43:38.741Z,0.00
2018-05-18T02:44:38.892Z,0.00
2018-05-18T02:45:39.045Z,0.00
2018-05-18T02:46:39.196Z,0.00
2018-05-18T02:47:39.353Z,0.00
2018-05-18T02:48:39.502Z,0.00
2018-05-18T02:49:39.657Z,0.00
2018-05-18T02:50:39.803Z,0.00
2018-05-18T02:51:39.953Z,0.00
2018-05-18T02:52:40.106Z,0.00
2018-05-18T02:53:40.258Z,0.00
2018-05-18T02:54:40.411Z,0.00
2018-05-18T02:55:40.561Z,0.00
2018-05-18T02:56:40.713Z,0.00
2018-05-18T02:57:40.862Z,0.00
2018-05-18T02:58:41.019Z,0.00
2018-05-18T02:59:41.171Z,0.00
2018-05-18T03:00:41.321Z,0.00
2018-05-18T03:01:41.480Z,4.00
2018-05-18T03:02:41.627Z,4.00
2018-05-18T03:03:41.786Z,0.00
2018-05-18T03:04:41.933Z,0.00
2018-05-18T03:05:42.083Z,0.00
2018-05-18T03:06:42.254Z,4.00
2018-05-18T03:07:42.386Z,4.00
2018-05-18T03:08:42.540Z,0.00
2018-05-18T03:09:42.695Z,4.00
2018-05-18T03:10:42.844Z,4.00
2018-05-18T03:11:42.999Z,4.00
2018-05-18T03:12:43.150Z,4.00
2018-05-18T03:13:43.304Z,4.00
2018-05-18T03:14:43.451Z,8.00
2018-05-18T03:15:43.603Z,8.00
2018-05-18T03:16:43.758Z,8.00
2018-05-18T03:17:43.909Z,8.00
2018-05-18T03:18:44.061Z,12.00
2018-05-18T03:19:44.218Z,16.00
2018-05-18T03:20:44.432Z,16.00
2018-05-18T03:21:44.521Z,16.00
2018-05-18T03:22:44.673Z,16.00
2018-05-18T03:23:44.825Z,16.00
2018-05-18T03:24:44.973Z,20.00
2018-05-18T03:25:45.129Z,24.00
2018-05-18T03:26:45.280Z,24.00
2018-05-18T03:27:45.489Z,24.00
2018-05-18T03:28:45.583Z,24.00
2018-05-18T03:29:45.733Z,28.00
2018-05-18T03:30:45.884Z,32.00
2018-05-18T03:31:46.039Z,32.00
2018-05-18T03:32:46.191Z,36.00
2018-05-18T03:33:46.340Z,40.00
2018-05-18T03:34:46.498Z,40.00
2018-05-18T03:35:46.646Z,44.00
2018-05-18T03:36:46.795Z,48.00
2018-05-18T03:37:46.946Z,48.00
2018-05-18T03:38:47.097Z,52.00
2018-05-18T03:39:47.254Z,56.00
2018-05-18T03:40:47.400Z,56.00
2018-05-18T03:41:47.551Z,60.00
2018-05-18T03:42:47.703Z,64.00
2018-05-18T03:43:47.855Z,64.00
2018-05-18T03:44:48.005Z,68.00
2018-05-18T03:45:48.159Z,72.00
2018-05-18T03:46:48.310Z,76.00
2018-05-18T03:47:48.462Z,84.00
2018-05-18T03:48:48.616Z,88.00
2018-05-18T03:49:48.778Z,88.00
2018-05-18T03:50:48.922Z,96.00
2018-05-18T03:51:49.073Z,100.00
2018-05-18T03:52:49.224Z,104.00
2018-05-18T03:53:49.375Z,112.00
2018-05-18T03:54:49.535Z,116.00
2018-05-18T03:55:49.686Z,120.00
2018-05-18T03:56:49.837Z,128.00
2018-05-18T03:57:49.990Z,136.00
2018-05-18T03:58:50.145Z,140.00
2018-05-18T03:59:50.300Z,148.00
2018-05-18T04:00:50.450Z,156.00
2018-05-18T04:01:50.602Z,168.00
2018-05-18T04:02:50.754Z,172.00
2018-05-18T04:03:50.906Z,180.00
2018-05-18T04:04:51.058Z,192.00
2018-05-18T04:05:51.211Z,200.00
2018-05-18T04:06:51.386Z,204.00
2018-05-18T04:07:51.589Z,216.00
2018-05-18T04:08:51.675Z,220.00
2018-05-18T04:09:51.844Z,224.00
2018-05-18T04:10:51.979Z,228.00
2018-05-18T04:11:52.128Z,236.00
2018-05-18T04:12:52.281Z,244.00
2018-05-18T04:13:52.438Z,252.00
2018-05-18T04:14:52.591Z,256.00
2018-05-18T04:15:52.739Z,252.00
2018-05-18T04:16:52.888Z,256.00
2018-05-18T04:17:53.040Z,268.00
2018-05-18T04:18:53.192Z,280.00
2018-05-18T04:19:53.420Z,280.00
2018-05-18T04:20:53.497Z,296.00
2018-05-18T04:21:53.684Z,304.00
2018-05-18T04:22:53.819Z,316.00
2018-05-18T04:23:53.972Z,336.00
2018-05-18T04:24:54.130Z,344.00
2018-05-18T04:25:54.282Z,344.00
2018-05-18T04:26:54.430Z,356.00
2018-05-18T04:27:54.588Z,364.00
2018-05-18T04:28:54.738Z,368.00
2018-05-18T04:29:54.892Z,372.00
2018-05-18T04:30:55.045Z,384.00
2018-05-18T04:31:55.202Z,392.00
2018-05-18T04:32:55.381Z,392.00
2018-05-18T04:33:55.508Z,396.00
2018-05-18T04:34:55.774Z,400.00
2018-05-18T04:35:55.852Z,408.00
2018-05-18T04:36:55.970Z,408.00
2018-05-18T04:37:56.265Z,416.00
2018-05-18T04:38:56.523Z,420.00
2018-05-18T04:39:56.359Z,428.00
2018-05-18T04:40:56.511Z,436.00
2018-05-18T04:41:56.661Z,448.00
2018-05-18T04:42:56.805Z,464.00
2018-05-18T04:43:56.968Z,476.00
2018-05-18T04:44:57.117Z,484.00
2018-05-18T04:45:57.271Z,488.00
2018-05-18T04:46:57.428Z,492.00
2018-05-18T04:47:57.578Z,496.00
2018-05-18T04:48:57.727Z,500.00
2018-05-18T04:49:57.879Z,512.00
2018-05-18T04:50:58.067Z,520.00
2018-05-18T04:51:58.182Z,532.00
2018-05-18T04:52:58.337Z,536.00
2018-05-18T04:53:58.486Z,548.00
2018-05-18T04:54:58.631Z,572.00
2018-05-18T04:55:58.788Z,588.00
2018-05-18T04:56:58.937Z,608.00
2018-05-18T04:57:59.102Z,624.00
2018-05-18T04:58:59.251Z,636.00
2018-05-18T04:59:59.410Z,632.00
2018-05-18T05:00:59.554Z,640.00
2018-05-18T05:01:59.705Z,648.00
2018-05-18T05:02:59.830Z,660.00
2018-05-18T05:03:59.983Z,688.00
2018-05-18T05:05:00.137Z,716.00
2018-05-18T05:06:00.281Z,716.00
2018-05-18T05:07:00.440Z,716.00
2018-05-18T05:08:00.584Z,724.00
2018-05-18T05:09:00.733Z,736.00
2018-05-18T05:10:00.972Z,756.00
2018-05-18T05:11:01.045Z,764.00
2018-05-18T05:12:01.192Z,768.00
2018-05-18T05:13:01.339Z,784.00
2018-05-18T05:14:01.486Z,792.00
2018-05-18T05:15:01.658Z,796.00
2018-05-18T05:16:01.783Z,812.00
2018-05-18T05:17:01.938Z,824.00
2018-05-18T05:18:02.096Z,828.00
2018-05-18T05:19:02.233Z,828.00
2018-05-18T05:20:02.383Z,836.00
2018-05-18T05:21:02.537Z,840.00
2018-05-18T05:22:02.688Z,856.00
2018-05-18T05:23:02.840Z,868.00
2018-05-18T05:24:02.990Z,880.00
2018-05-18T05:25:03.145Z,900.00
2018-05-18T05:26:03.294Z,900.00
2018-05-18T05:27:03.449Z,888.00
2018-05-18T05:28:03.601Z,880.00
2018-05-18T05:29:03.754Z,876.00
2018-05-18T05:30:03.903Z,868.00
2018-05-18T05:31:04.055Z,856.00
2018-05-18T05:32:04.210Z,860.00
2018-05-18T05:33:04.358Z,872.00
2018-05-18T05:34:04.513Z,880.00
2018-05-18T05:35:04.663Z,888.00
2018-05-18T05:36:04.817Z,888.00
2018-05-18T05:37:04.968Z,884.00
2018-05-18T05:38:05.119Z,888.00
2018-05-18T05:39:05.272Z,888.00
2018-05-18T05:40:05.423Z,900.00
2018-05-18T05:41:05.581Z,916.00
2018-05-18T05:42:05.721Z,936.00
2018-05-18T05:43:05.875Z,948.00
2018-05-18T05:44:06.029Z,960.00
2018-05-18T05:45:06.181Z,972.00
2018-05-18T05:46:06.333Z,972.00
2018-05-18T05:47:06.482Z,976.00
2018-05-18T05:48:06.636Z,976.00
2018-05-18T05:49:06.787Z,980.00
2018-05-18T05:50:06.947Z,992.00
2018-05-18T05:51:07.091Z,1000.00
2018-05-18T05:52:07.251Z,1020.00
2018-05-18T05:53:07.397Z,1036.00
2018-05-18T05:54:07.547Z,1060.00
2018-05-18T05:55:07.697Z,1104.00
2018-05-18T05:56:07.860Z,1148.00
2018-05-18T05:57:08.002Z,1180.00
2018-05-18T05:58:08.152Z,1216.00
2018-05-18T05:59:08.306Z,1240.00
2018-05-18T06:00:08.461Z,1264.00
2018-05-18T06:01:08.692Z,1312.00
2018-05-18T06:02:08.766Z,1364.00
2018-05-18T06:03:08.916Z,1396.00
2018-05-18T06:04:09.066Z,1424.00
2018-05-18T06:05:09.218Z,1440.00
2018-05-18T06:06:09.370Z,1460.00
2018-05-18T06:07:09.524Z,1500.00
2018-05-18T06:08:09.679Z,1516.00
2018-05-18T06:09:09.829Z,1500.00
2018-05-18T06:10:09.979Z,1488.00
2018-05-18T06:11:10.130Z,1480.00
2018-05-18T06:12:10.291Z,1464.00
2018-05-18T06:13:10.434Z,1444.00
2018-05-18T06:14:10.589Z,1444.00
2018-05-18T06:15:10.738Z,1468.00
2018-05-18T06:16:10.890Z,1492.00
2018-05-18T06:17:11.045Z,1524.00
2018-05-18T06:18:11.200Z,1544.00
2018-05-18T06:19:11.351Z,1576.00
2018-05-18T06:20:11.506Z,1596.00
2018-05-18T06:21:11.657Z,1604.00
2018-05-18T06:22:11.802Z,1636.00
2018-05-18T06:23:11.955Z,1696.00
2018-05-18T06:24:12.105Z,1760.00
2018-05-18T06:25:12.257Z,1784.00
2018-05-18T06:26:12.413Z,1780.00
2018-05-18T06:27:12.563Z,1776.00
2018-05-18T06:28:12.715Z,1796.00
2018-05-18T06:29:12.868Z,1832.00
2018-05-18T06:30:13.022Z,1876.00
2018-05-18T06:31:13.183Z,1924.00
2018-05-18T06:32:13.339Z,1956.00
2018-05-18T06:33:13.489Z,1996.00
2018-05-18T06:34:13.643Z,2008.00
2018-05-18T06:35:13.874Z,2020.00
2018-05-18T06:36:13.947Z,2036.00
2018-05-18T06:37:14.099Z,2036.00
2018-05-18T06:38:14.251Z,1992.00
2018-05-18T06:39:14.408Z,1924.00
2018-05-18T06:40:14.559Z,1864.00
2018-05-18T06:41:14.766Z,1820.00
2018-05-18T06:42:14.865Z,1780.00
2018-05-18T06:43:15.020Z,1740.00
2018-05-18T06:44:15.172Z,1712.00
2018-05-18T06:45:15.325Z,1716.00
2018-05-18T06:46:15.482Z,1732.00
2018-05-18T06:47:15.627Z,1780.00
2018-05-18T06:48:15.782Z,1844.00
2018-05-18T06:49:15.934Z,1900.00
2018-05-18T06:50:16.086Z,1944.00
2018-05-18T06:51:16.235Z,1964.00
2018-05-18T06:52:16.389Z,1980.00
2018-05-18T06:53:16.542Z,1968.00
2018-05-18T06:54:16.692Z,1944.00
2018-05-18T06:55:16.846Z,1920.00
2018-05-18T06:56:16.995Z,1920.00
2018-05-18T06:57:17.154Z,1928.00
2018-05-18T06:58:17.301Z,1956.00
2018-05-18T06:59:17.455Z,1984.00
2018-05-18T07:00:17.606Z,2008.00
2018-05-18T07:01:17.761Z,2064.00
2018-05-18T07:02:17.914Z,2120.00
2018-05-18T07:03:18.066Z,2184.00
2018-05-18T07:04:18.223Z,2260.00
2018-05-18T07:05:18.371Z,2364.00
2018-05-18T07:06:18.528Z,2464.00
2018-05-18T07:07:18.678Z,2520.00
2018-05-18T07:08:18.831Z,2568.00
2018-05-18T07:09:18.980Z,2596.00
2018-05-18T07:10:19.133Z,2600.00
2018-05-18T07:11:19.287Z,2592.00
2018-05-18T07:12:19.441Z,2596.00
2018-05-18T07:13:19.591Z,2600.00
2018-05-18T07:14:19.745Z,2636.00
2018-05-18T07:15:19.909Z,2680.00
2018-05-18T07:16:20.047Z,2688.00
2018-05-18T07:17:20.200Z,2672.00
2018-05-18T07:18:20.349Z,2640.00
2018-05-18T07:19:20.500Z,2604.00
2018-05-18T07:20:20.658Z,2584.00
2018-05-18T07:21:20.807Z,2576.00
2018-05-18T07:22:20.960Z,2556.00
2018-05-18T07:23:21.111Z,2516.00
2018-05-18T07:24:21.265Z,2480.00
2018-05-18T07:25:21.416Z,2472.00
2018-05-18T07:26:21.566Z,2480.00
2018-05-18T07:27:21.720Z,2520.00
2018-05-18T07:28:21.871Z,2552.00
2018-05-18T07:29:22.024Z,2584.00
2018-05-18T07:30:22.174Z,2624.00
2018-05-18T07:31:22.327Z,2656.00
2018-05-18T07:32:22.477Z,2688.00
2018-05-18T07:33:22.637Z,2740.00
2018-05-18T07:34:22.783Z,2808.00
2018-05-18T07:35:22.935Z,2864.00
2018-05-18T07:36:23.087Z,2912.00
2018-05-18T07:37:23.244Z,2980.00
2018-05-18T07:38:23.395Z,3016.00
2018-05-18T07:39:23.547Z,3052.00
2018-05-18T07:40:23.699Z,3100.00
2018-05-18T07:41:23.850Z,3156.00
2018-05-18T07:42:24.006Z,3208.00
2018-05-18T07:43:24.156Z,3244.00
2018-05-18T07:44:24.309Z,3284.00
2018-05-18T07:45:24.463Z,3372.00
2018-05-18T07:46:24.615Z,3524.00
2018-05-18T07:47:24.771Z,3644.00
2018-05-18T07:48:24.926Z,3664.00
2018-05-18T07:49:25.075Z,3656.00
2018-05-18T07:50:25.228Z,3712.00
2018-05-18T07:51:25.380Z,3804.00
2018-05-18T07:52:25.532Z,3872.00
2018-05-18T07:53:25.764Z,3908.00
2018-05-18T07:54:25.844Z,3932.00
2018-05-18T07:55:25.996Z,3876.00
2018-05-18T07:56:26.157Z,3792.00
2018-05-18T07:57:26.305Z,3736.00
2018-05-18T07:58:26.459Z,3684.00
2018-05-18T07:59:26.697Z,3636.00
2018-05-18T08:00:26.758Z,3524.00
2018-05-18T08:01:26.909Z,3440.00
2018-05-18T08:02:27.065Z,3448.00
2018-05-18T08:03:27.216Z,3516.00
2018-05-18T08:04:27.372Z,3560.00
2018-05-18T08:05:27.525Z,3576.00
2018-05-18T08:06:27.678Z,3572.00
2018-05-18T08:07:27.832Z,3544.00
2018-05-18T08:08:27.984Z,3504.00
2018-05-18T08:09:28.141Z,3448.00
2018-05-18T08:10:28.294Z,3392.00
2018-05-18T08:11:28.446Z,3332.00
2018-05-18T08:12:28.600Z,3240.00
2018-05-18T08:13:28.757Z,3188.00
2018-05-18T08:14:28.910Z,3180.00
2018-05-18T08:15:29.064Z,3168.00
2018-05-18T08:16:29.217Z,3156.00
2018-05-18T08:17:29.370Z,3148.00
2018-05-18T08:18:29.524Z,3168.00
2018-05-18T08:19:29.676Z,3224.00
2018-05-18T08:20:29.835Z,3304.00
2018-05-18T08:21:30.017Z,3380.00
2018-05-18T08:22:30.134Z,3452.00
2018-05-18T08:23:30.292Z,3520.00
2018-05-18T08:24:30.446Z,3616.00
2018-05-18T08:25:30.601Z,3712.00
2018-05-18T08:26:30.752Z,3804.00
2018-05-18T08:27:30.906Z,3924.00
2018-05-18T08:28:31.060Z,4068.00
2018-05-18T08:29:31.213Z,4232.00
2018-05-18T08:30:31.367Z,4332.00
2018-05-18T08:31:31.522Z,4400.00
2018-05-18T08:32:31.676Z,4496.00
2018-05-18T08:33:31.829Z,4572.00
2018-05-18T08:34:31.981Z,4660.00
2018-05-18T08:35:32.135Z,4784.00
2018-05-18T08:36:32.293Z,4840.00
2018-05-18T08:37:32.444Z,4844.00
2018-05-18T08:38:32.596Z,4816.00
2018-05-18T08:39:32.750Z,4768.00
2018-05-18T08:40:32.902Z,4704.00
2018-05-18T08:41:33.056Z,4576.00
2018-05-18T08:42:33.206Z,4468.00
2018-05-18T08:43:33.363Z,4392.00
2018-05-18T08:44:33.514Z,4268.00
2018-05-18T08:45:33.673Z,4152.00
2018-05-18T08:46:33.823Z,4104.00
2018-05-18T08:47:33.973Z,4116.00
2018-05-18T08:48:34.126Z,4208.00
2018-05-18T08:49:34.283Z,4328.00
2018-05-18T08:50:34.433Z,4444.00
2018-05-18T08:51:34.593Z,4536.00
2018-05-18T08:52:34.743Z,4632.00
2018-05-18T08:53:34.900Z,4784.00
2018-05-18T08:54:35.055Z,4984.00
2018-05-18T08:55:35.213Z,5232.00
2018-05-18T08:56:35.359Z,5464.00
2018-05-18T08:57:35.513Z,5576.00
2018-05-18T08:58:35.668Z,5656.00
2018-05-18T08:59:35.822Z,5712.00
2018-05-18T09:00:35.986Z,5692.00
2018-05-18T09:01:36.131Z,5568.00
2018-05-18T09:02:36.281Z,5412.00
2018-05-18T09:03:36.443Z,5224.00
2018-05-18T09:04:36.595Z,5024.00
2018-05-18T09:05:36.749Z,4812.00
2018-05-18T09:06:36.905Z,4676.00
2018-05-18T09:07:37.057Z,4628.00
2018-05-18T09:08:37.211Z,4664.00
2018-05-18T09:09:37.369Z,4808.00
2018-05-18T09:10:37.521Z,5000.00
2018-05-18T09:11:37.681Z,5108.00
2018-05-18T09:12:37.836Z,5132.00
2018-05-18T09:13:37.984Z,5076.00
2018-05-18T09:14:38.139Z,4972.00
2018-05-18T09:15:38.293Z,4876.00
2018-05-18T09:16:38.446Z,4772.00
2018-05-18T09:17:38.598Z,4664.00
2018-05-18T09:18:38.751Z,4568.00
2018-05-18T09:19:38.906Z,4528.00
2018-05-18T09:20:39.061Z,4524.00
2018-05-18T09:21:39.218Z,4480.00
2018-05-18T09:22:39.367Z,4440.00
2018-05-18T09:23:39.525Z,4396.00
2018-05-18T09:24:39.676Z,4368.00
2018-05-18T09:25:39.829Z,4364.00
2018-05-18T09:26:39.987Z,4384.00
2018-05-18T09:27:40.140Z,4460.00
2018-05-18T09:28:40.293Z,4552.00
2018-05-18T09:29:40.445Z,4608.00
2018-05-18T09:30:40.604Z,4680.00
2018-05-18T09:31:40.757Z,4776.00
2018-05-18T09:32:40.912Z,4876.00
2018-05-18T09:33:41.066Z,5000.00
2018-05-18T09:34:41.220Z,5116.00
2018-05-18T09:35:41.372Z,5204.00
2018-05-18T09:36:41.525Z,5280.00
2018-05-18T09:37:41.678Z,5372.00
2018-05-18T09:38:41.831Z,5452.00
2018-05-18T09:39:41.995Z,5480.00
2018-05-18T09:40:42.139Z,5444.00
2018-05-18T09:41:42.329Z,5360.00
2018-05-18T09:42:42.456Z,5232.00
2018-05-18T09:43:42.615Z,5124.00
2018-05-18T09:44:42.766Z,5072.00
2018-05-18T09:45:42.917Z,5044.00
2018-05-18T09:46:43.070Z,5036.00
2018-05-18T09:47:43.226Z,5052.00
2018-05-18T09:48:43.379Z,5072.00
2018-05-18T09:49:43.534Z,5076.00
2018-05-18T09:50:43.688Z,5096.00
2018-05-18T09:51:43.846Z,5144.00
2018-05-18T09:52:43.998Z,5228.00
2018-05-18T09:53:44.153Z,5368.00
2018-05-18T09:54:44.441Z,5568.00
2018-05-18T09:55:44.460Z,5780.00
2018-05-18T09:56:44.615Z,5984.00
2018-05-18T09:57:44.769Z,6132.00
2018-05-18T09:58:44.931Z,6160.00
2018-05-18T09:59:45.084Z,6176.00
2018-05-18T10:00:45.260Z,6180.00
2018-05-18T10:01:45.386Z,6156.00
2018-05-18T10:02:45.547Z,6120.00
2018-05-18T10:03:45.699Z,6084.00
2018-05-18T10:04:45.854Z,6092.00
2018-05-18T10:05:46.006Z,6144.00
2018-05-18T10:06:46.161Z,6232.00
2018-05-18T10:07:46.315Z,6336.00
2018-05-18T10:08:46.468Z,6456.00
2018-05-18T10:09:46.624Z,6556.00
2018-05-18T10:10:46.782Z,6656.00
2018-05-18T10:11:46.935Z,6792.00
2018-05-18T10:12:47.088Z,6932.00
2018-05-18T10:13:47.241Z,7088.00
2018-05-18T10:14:47.395Z,7252.00
2018-05-18T10:15:47.554Z,7360.00
2018-05-18T10:16:47.707Z,7404.00
2018-05-18T10:17:47.861Z,7408.00
2018-05-18T10:18:48.015Z,7356.00
2018-05-18T10:19:48.170Z,7364.00
2018-05-18T10:20:48.325Z,7468.00
2018-05-18T10:21:48.482Z,7692.00
2018-05-18T10:22:48.635Z,7988.00
2018-05-18T10:23:48.789Z,8320.00
2018-05-18T10:24:48.945Z,8628.00
2018-05-18T10:25:49.103Z,8760.00
2018-05-18T10:26:49.258Z,8848.00
2018-05-18T10:27:49.411Z,8888.00
2018-05-18T10:28:49.567Z,8964.00
2018-05-18T10:29:49.723Z,9044.00
2018-05-18T10:30:49.877Z,9112.00
2018-05-18T10:31:50.026Z,9164.00
2018-05-18T10:32:50.186Z,9264.00
2018-05-18T10:33:50.332Z,9432.00
2018-05-18T10:34:50.486Z,9576.00
2018-05-18T10:35:50.649Z,9620.00
2018-05-18T10:36:50.804Z,9628.00
2018-05-18T10:37:50.958Z,9656.00
2018-05-18T10:38:51.115Z,9712.00
2018-05-18T10:39:51.270Z,9816.00
2018-05-18T10:40:51.423Z,9876.00
2018-05-18T10:41:51.582Z,9908.00
2018-05-18T10:42:51.732Z,9968.00
2018-05-18T10:43:51.891Z,10080.00
2018-05-18T10:44:52.046Z,10196.00
2018-05-18T10:45:52.198Z,10264.00
2018-05-18T10:46:52.355Z,10280.00
2018-05-18T10:47:52.508Z,10236.00
2018-05-18T10:48:52.667Z,10160.00
2018-05-18T10:49:52.822Z,10168.00
2018-05-18T10:50:52.978Z,10136.00
2018-05-18T10:51:53.137Z,10124.00
2018-05-18T10:52:53.289Z,10200.00
2018-05-18T10:53:53.443Z,10340.00
2018-05-18T10:54:53.600Z,10508.00
2018-05-18T10:55:53.759Z,10536.00
2018-05-18T10:56:53.912Z,10708.00
2018-05-18T10:57:54.067Z,11004.00
2018-05-18T10:58:54.227Z,11140.00
2018-05-18T10:59:54.379Z,11084.00
2018-05-18T11:00:54.541Z,10936.00
2018-05-18T11:01:54.735Z,10720.00
2018-05-18T11:02:54.862Z,10372.00
2018-05-18T11:03:55.015Z,10028.00
2018-05-18T11:04:55.170Z,9876.00
2018-05-18T11:05:55.331Z,9868.00
2018-05-18T11:06:55.486Z,9888.00
2018-05-18T11:07:55.648Z,9784.00
2018-05-18T11:08:55.804Z,9564.00
2018-05-18T11:09:55.958Z,9364.00
2018-05-18T11:10:56.116Z,9272.00
2018-05-18T11:11:56.275Z,9204.00
2018-05-18T11:12:56.432Z,9148.00
2018-05-18T11:13:56.625Z,9092.00
2018-05-18T11:14:56.745Z,9092.00
2018-05-18T11:15:56.901Z,9096.00
2018-05-18T11:16:57.056Z,9112.00
2018-05-18T11:17:57.214Z,9164.00
2018-05-18T11:18:57.367Z,9316.00
2018-05-18T11:19:57.608Z,9468.00
2018-05-18T11:20:57.681Z,9464.00
2018-05-18T11:21:57.837Z,9292.00
2018-05-18T11:22:57.994Z,9116.00
2018-05-18T11:23:58.149Z,9016.00
2018-05-18T11:24:58.305Z,9080.00
2018-05-18T11:25:58.464Z,9300.00
2018-05-18T11:26:58.619Z,9544.00
2018-05-18T11:27:58.778Z,9720.00
2018-05-18T11:28:58.934Z,9764.00
2018-05-18T11:29:59.099Z,9732.00
2018-05-18T11:30:59.250Z,9660.00
2018-05-18T11:31:59.407Z,9396.00
2018-05-18T11:32:59.633Z,9080.00
2018-05-18T11:33:59.720Z,8892.00
2018-05-18T11:34:59.876Z,8824.00
2018-05-18T11:36:00.033Z,8732.00
2018-05-18T11:37:00.191Z,8564.00
2018-05-18T11:38:00.349Z,8420.00
2018-05-18T11:39:00.509Z,8312.00
2018-05-18T11:40:00.663Z,8360.00
2018-05-18T11:41:00.819Z,8460.00
2018-05-18T11:42:00.981Z,8448.00
2018-05-18T11:43:01.137Z,8424.00
2018-05-18T11:44:01.298Z,8440.00
2018-05-18T11:45:01.455Z,8424.00
2018-05-18T11:46:01.611Z,8348.00
2018-05-18T11:47:01.767Z,8180.00
2018-05-18T11:48:02.025Z,8040.00
2018-05-18T11:49:02.097Z,8052.00
2018-05-18T11:50:02.248Z,8128.00
2018-05-18T11:51:02.407Z,8224.00
2018-05-18T11:52:02.562Z,8340.00
2018-05-18T11:53:02.717Z,8480.00
2018-05-18T11:54:02.873Z,8580.00
2018-05-18T11:55:03.032Z,8576.00
2018-05-18T11:56:03.185Z,8472.00
2018-05-18T11:57:03.341Z,8356.00
2018-05-18T11:58:03.499Z,8232.00
2018-05-18T11:59:03.655Z,8036.00
2018-05-18T12:00:03.812Z,7888.00
2018-05-18T12:01:03.966Z,7856.00
2018-05-18T12:02:04.126Z,7892.00
2018-05-18T12:03:04.283Z,7952.00
2018-05-18T12:04:04.441Z,8052.00
2018-05-18T12:05:04.601Z,8212.00
2018-05-18T12:06:04.762Z,8212.00
2018-05-18T12:07:04.916Z,8084.00
2018-05-18T12:08:05.071Z,7904.00
2018-05-18T12:09:05.226Z,7712.00
2018-05-18T12:10:05.380Z,7520.00
2018-05-18T12:11:05.542Z,7308.00
2018-05-18T12:12:05.703Z,7148.00
2018-05-18T12:13:05.863Z,7028.00
2018-05-18T12:14:06.046Z,7032.00
2018-05-18T12:15:06.214Z,7064.00
2018-05-18T12:16:06.335Z,7080.00
2018-05-18T12:17:06.491Z,7128.00
2018-05-18T12:18:06.650Z,7204.00
2018-05-18T12:19:06.805Z,7404.00
2018-05-18T12:20:06.964Z,7596.00
2018-05-18T12:21:07.119Z,7704.00
2018-05-18T12:22:07.276Z,7844.00
2018-05-18T12:23:07.432Z,7964.00
2018-05-18T12:24:07.588Z,8028.00
2018-05-18T12:25:07.744Z,7992.00
2018-05-18T12:26:07.951Z,7928.00
2018-05-18T12:27:08.062Z,7732.00
2018-05-18T12:28:08.214Z,7540.00
2018-05-18T12:29:08.381Z,7484.00
2018-05-18T12:30:08.535Z,7488.00